createdAt,value
2022-09-14T00:01:40.127Z,4.93
2022-09-14T00:04:17.511Z,4.90
2022-09-14T00:06:46.333Z,5.30
2022-09-14T00:09:17.160Z,4.78
2022-09-14T00:11:45.414Z,5.43
2022-09-14T00:14:13.748Z,4.82
2022-09-14T00:16:43.131Z,4.88
2022-09-14T00:19:18.933Z,4.75
2022-09-14T00:21:47.349Z,5.03
2022-09-14T00:24:15.508Z,5.03
2022-09-14T00:26:43.562Z,4.65
2022-09-14T00:29:12.222Z,4.60
2022-09-14T00:31:41.412Z,4.95
2022-09-14T00:34:16.188Z,4.60
2022-09-14T00:36:48.147Z,4.45
2022-09-14T00:39:17.282Z,4.82
2022-09-14T00:41:48.863Z,4.38
2022-09-14T00:44:54.949Z,4.18
2022-09-14T00:47:23.199Z,4.05
2022-09-14T00:49:51.984Z,4.53
2022-09-14T00:52:23.641Z,4.25
2022-09-14T00:54:55.244Z,3.65
2022-09-14T00:57:25.902Z,3.60
2022-09-14T00:59:55.588Z,4.10
2022-09-14T01:02:26.805Z,3.50
2022-09-14T01:04:56.291Z,4.43
2022-09-14T01:07:39.436Z,3.70
2022-09-14T01:10:19.886Z,3.45
2022-09-14T01:13:01.117Z,3.20
2022-09-14T01:15:37.394Z,3.58
2022-09-14T01:18:09.240Z,3.70
2022-09-14T01:20:41.190Z,4.07
2022-09-14T01:23:20.640Z,3.90
2022-09-14T01:26:08.252Z,3.10
2022-09-14T01:28:44.556Z,3.30
2022-09-14T01:31:17.861Z,4.00
2022-09-14T01:33:52.657Z,4.15
2022-09-14T01:36:21.755Z,4.60
2022-09-14T01:38:53.129Z,4.35
2022-09-14T01:41:25.885Z,4.50
2022-09-14T01:43:59.004Z,5.38
2022-09-14T01:46:31.285Z,4.82
2022-09-14T01:49:04.138Z,4.22
2022-09-14T01:51:40.150Z,4.22
2022-09-14T01:54:14.196Z,4.85
2022-09-14T01:56:49.421Z,4.35
2022-09-14T01:59:23.051Z,4.38
2022-09-14T02:01:54.375Z,4.38
2022-09-14T02:04:27.808Z,4.15
2022-09-14T02:06:57.328Z,4.45
2022-09-14T02:09:27.502Z,4.03
2022-09-14T02:12:00.595Z,4.40
2022-09-14T02:14:30.348Z,3.50
2022-09-14T02:16:58.952Z,3.83
2022-09-14T02:19:30.148Z,3.83
2022-09-14T02:21:58.179Z,4.13
2022-09-14T02:24:26.325Z,3.42
2022-09-14T02:26:56.089Z,4.88
2022-09-14T02:29:24.234Z,3.75
2022-09-14T02:32:06.084Z,4.28
2022-09-14T02:34:43.844Z,3.80
2022-09-14T02:37:17.632Z,4.47
2022-09-14T02:39:56.440Z,4.00
2022-09-14T02:42:30.826Z,4.45
2022-09-14T02:45:07.642Z,4.47
2022-09-14T02:47:47.733Z,4.28
2022-09-14T02:50:22.703Z,4.80
2022-09-14T02:52:56.720Z,4.28
2022-09-14T02:55:28.794Z,5.13
2022-09-14T02:58:05.065Z,5.13
2022-09-14T03:00:36.651Z,5.50
2022-09-14T03:03:07.454Z,5.85
2022-09-14T03:05:36.112Z,6.13
2022-09-14T03:08:05.182Z,6.53
2022-09-14T03:10:34.165Z,6.30
2022-09-14T03:13:02.212Z,7.45
2022-09-14T03:15:31.303Z,6.88
2022-09-14T03:17:59.335Z,7.80
2022-09-14T03:20:30.703Z,7.47
2022-09-14T03:23:00.394Z,7.80
2022-09-14T03:25:29.032Z,6.93
2022-09-14T03:27:58.960Z,7.25
2022-09-14T03:30:28.021Z,7.00
2022-09-14T03:32:56.248Z,6.78
2022-09-14T03:35:24.561Z,7.38
2022-09-14T03:37:54.308Z,6.78
2022-09-14T03:40:22.410Z,6.63
2022-09-14T03:42:51.966Z,7.47
2022-09-14T03:45:21.235Z,6.90
2022-09-14T03:47:50.121Z,6.25
2022-09-14T03:50:19.449Z,7.30
2022-09-14T03:52:47.705Z,7.90
2022-09-14T03:55:19.257Z,7.20
2022-09-14T03:57:47.357Z,7.55
2022-09-14T04:00:16.034Z,7.70
2022-09-14T04:07:07.651Z,7.45
2022-09-14T04:09:35.904Z,7.68
2022-09-14T04:12:06.108Z,7.32
2022-09-14T04:14:34.708Z,6.88
2022-09-14T04:17:03.265Z,7.85
2022-09-14T04:19:33.261Z,7.72
2022-09-14T04:22:01.416Z,7.43
2022-09-14T04:24:30.855Z,7.20
2022-09-14T04:27:36.803Z,6.93
2022-09-14T04:30:06.109Z,6.57
2022-09-14T04:32:34.727Z,7.32
2022-09-14T04:35:03.275Z,6.95
2022-09-14T04:37:32.992Z,8.50
2022-09-14T04:40:01.237Z,7.90
2022-09-14T04:42:30.953Z,7.72
2022-09-14T04:45:00.608Z,7.35
2022-09-14T04:47:30.828Z,7.85
2022-09-14T04:49:59.034Z,8.00
2022-09-14T04:52:27.376Z,8.70
2022-09-14T04:54:55.581Z,8.60
2022-09-14T04:57:23.930Z,8.90
2022-09-14T04:59:52.132Z,8.80
2022-09-14T05:02:21.816Z,9.48
2022-09-14T05:04:50.219Z,8.32
2022-09-14T05:07:18.312Z,9.65
2022-09-14T05:09:46.485Z,8.85
2022-09-14T05:12:14.612Z,9.20
2022-09-14T05:14:42.750Z,10.48
2022-09-14T05:17:11.099Z,12.88
2022-09-14T05:19:40.947Z,12.93
2022-09-14T05:22:09.054Z,13.38
2022-09-14T05:24:37.198Z,13.60
2022-09-14T05:27:05.597Z,14.02
2022-09-14T05:29:33.853Z,14.65
2022-09-14T05:32:01.969Z,15.68
2022-09-14T05:34:30.137Z,15.93
2022-09-14T05:36:59.775Z,15.05
2022-09-14T05:39:27.940Z,14.10
2022-09-14T05:41:56.035Z,14.13
2022-09-14T05:44:24.101Z,14.13
2022-09-14T05:46:52.232Z,14.45
2022-09-14T05:49:20.413Z,14.00
2022-09-14T05:51:48.432Z,13.63
2022-09-14T05:54:17.974Z,15.07
2022-09-14T05:56:46.028Z,13.65
2022-09-14T05:59:14.291Z,13.10
2022-09-14T06:01:42.340Z,13.65
2022-09-14T06:04:12.405Z,14.85
2022-09-14T06:06:40.494Z,15.02
2022-09-14T06:09:08.615Z,14.85
2022-09-14T06:11:38.052Z,13.20
2022-09-14T06:14:07.503Z,14.13
2022-09-14T06:16:36.169Z,13.18
2022-09-14T06:19:04.518Z,14.88
2022-09-14T06:21:35.257Z,13.90
2022-09-14T06:24:03.743Z,14.75
2022-09-14T06:26:32.061Z,14.48
2022-09-14T06:29:01.551Z,15.20
2022-09-14T06:31:29.599Z,16.00
2022-09-14T06:33:57.916Z,16.67
2022-09-14T06:36:27.456Z,17.75
2022-09-14T06:38:56.554Z,16.58
2022-09-14T06:41:29.118Z,16.48
2022-09-14T06:43:58.304Z,16.17
2022-09-14T06:46:29.800Z,16.98
2022-09-14T06:48:59.936Z,16.83
2022-09-14T06:51:30.968Z,15.77
2022-09-14T06:54:00.515Z,16.63
2022-09-14T06:56:29.490Z,15.13
2022-09-14T06:58:58.988Z,18.00
2022-09-14T07:01:29.898Z,16.55
2022-09-14T07:03:58.348Z,16.05
2022-09-14T07:06:28.004Z,16.33
2022-09-14T07:08:57.764Z,16.88
2022-09-14T07:11:29.471Z,14.82
2022-09-14T07:13:58.889Z,14.32
2022-09-14T07:16:29.069Z,13.93
2022-09-14T07:18:58.420Z,13.93
2022-09-14T07:21:27.468Z,14.40
2022-09-14T07:23:56.667Z,13.52
2022-09-14T07:26:28.985Z,14.50
2022-09-14T07:28:58.661Z,13.38
2022-09-14T07:31:31.747Z,15.23
2022-09-14T07:34:01.850Z,14.07
2022-09-14T07:36:35.026Z,15.80
2022-09-14T07:39:05.303Z,15.73
2022-09-14T07:41:34.784Z,15.23
2022-09-14T07:44:05.357Z,16.58
2022-09-14T07:46:39.292Z,14.68
2022-09-14T07:49:08.699Z,15.00
2022-09-14T07:51:37.343Z,15.57
2022-09-14T07:54:06.262Z,15.73
2022-09-14T07:56:35.430Z,15.63
2022-09-14T07:59:33.512Z,16.10
2022-09-14T08:01:54.621Z,17.35
2022-09-14T08:04:23.351Z,14.82
2022-09-14T08:06:51.438Z,15.00
2022-09-14T08:09:19.484Z,16.35
2022-09-14T08:11:47.573Z,15.00
2022-09-14T08:14:15.670Z,16.02
2022-09-14T08:16:43.813Z,14.63
2022-09-14T08:19:18.281Z,14.50
2022-09-14T08:21:47.710Z,13.68
2022-09-14T08:24:18.306Z,13.20
2022-09-14T08:26:46.689Z,12.75
2022-09-14T08:29:15.632Z,11.57
2022-09-14T08:31:45.642Z,13.70
2022-09-14T08:34:16.471Z,11.73
2022-09-14T08:36:45.903Z,12.00
2022-09-14T08:39:16.578Z,10.35
2022-09-14T08:41:50.432Z,9.82
2022-09-14T08:44:22.067Z,9.63
2022-09-14T08:46:53.402Z,8.98
2022-09-14T08:49:30.781Z,8.52
2022-09-14T08:51:58.999Z,7.72
2022-09-14T08:54:27.360Z,8.73
2022-09-14T08:57:10.774Z,7.43
2022-09-14T08:59:47.259Z,8.68
2022-09-14T09:02:35.169Z,8.18
2022-09-14T09:05:21.181Z,8.20
2022-09-14T09:07:57.180Z,8.93
2022-09-14T09:10:27.131Z,8.85
2022-09-14T09:12:58.821Z,7.35
2022-09-14T09:15:30.725Z,7.57
2022-09-14T09:18:03.183Z,7.50
2022-09-14T09:20:35.621Z,7.40
2022-09-14T09:23:13.379Z,7.88
2022-09-14T09:25:52.976Z,7.68
2022-09-14T09:28:23.088Z,8.52
2022-09-14T09:30:51.339Z,8.88
2022-09-14T09:33:22.674Z,9.18
2022-09-14T09:35:53.356Z,8.90
2022-09-14T09:38:24.986Z,10.43
2022-09-14T09:40:56.193Z,9.00
2022-09-14T09:43:38.988Z,9.40
2022-09-14T09:46:13.444Z,9.50
2022-09-14T09:48:44.116Z,10.95
2022-09-14T09:51:17.466Z,9.48
2022-09-14T09:53:50.333Z,8.82
2022-09-14T09:56:21.200Z,8.77
2022-09-14T09:58:51.765Z,8.15
2022-09-14T10:01:23.976Z,9.02
2022-09-14T10:04:04.215Z,7.75
2022-09-14T10:06:41.461Z,8.43
2022-09-14T10:09:15.447Z,7.35
2022-09-14T10:11:45.202Z,8.68
2022-09-14T10:14:31.308Z,7.88
2022-09-14T10:17:17.438Z,8.10
2022-09-14T10:19:48.821Z,7.95
2022-09-14T10:22:27.921Z,8.02
2022-09-14T10:24:58.958Z,7.82
2022-09-14T10:27:38.332Z,8.15
2022-09-14T10:30:12.160Z,8.45
2022-09-14T10:32:42.487Z,8.50
2022-09-14T10:35:15.399Z,9.43
2022-09-14T10:37:55.155Z,8.95
2022-09-14T10:40:31.723Z,8.60
2022-09-14T10:43:10.738Z,9.07
2022-09-14T10:45:42.526Z,9.85
2022-09-14T10:48:33.852Z,11.02
2022-09-14T10:51:18.794Z,11.90
2022-09-14T10:53:59.062Z,11.07
2022-09-14T10:56:34.672Z,12.25
2022-09-14T10:59:23.700Z,12.57
2022-09-14T11:02:14.045Z,12.00
2022-09-14T11:05:06.312Z,10.88
2022-09-14T11:07:43.197Z,12.05
2022-09-14T11:10:21.174Z,12.80
2022-09-14T11:12:58.619Z,12.05
2022-09-14T11:15:31.832Z,11.48
2022-09-14T11:18:15.460Z,13.73
2022-09-14T11:21:02.087Z,13.32
2022-09-14T11:23:42.143Z,13.13
2022-09-14T11:26:15.752Z,14.23
2022-09-14T11:28:47.762Z,12.13
2022-09-14T11:31:21.603Z,12.48
2022-09-14T11:33:55.259Z,12.68
2022-09-14T11:36:27.176Z,13.93
2022-09-14T11:39:04.691Z,15.30
2022-09-14T11:41:42.605Z,13.00
2022-09-14T11:44:15.977Z,13.75
2022-09-14T11:46:47.993Z,13.07
2022-09-14T11:49:20.739Z,12.65
2022-09-14T11:51:53.575Z,13.23
2022-09-14T11:54:23.530Z,12.88
2022-09-14T11:56:55.976Z,13.43
2022-09-14T11:59:48.351Z,13.35
2022-09-14T12:03:00.215Z,12.35
2022-09-14T12:05:34.288Z,12.82
2022-09-14T12:08:27.055Z,14.27
2022-09-14T12:11:32.431Z,13.50
2022-09-14T12:14:33.968Z,12.90
2022-09-14T12:20:30.934Z,11.55
2022-09-14T12:23:19.234Z,13.82
2022-09-14T12:26:08.399Z,11.70
2022-09-14T12:28:47.828Z,11.45
2022-09-14T12:31:59.237Z,12.40
2022-09-14T12:34:31.778Z,11.77
2022-09-14T12:37:05.688Z,12.05
2022-09-14T12:39:37.978Z,11.82
2022-09-14T12:42:27.823Z,13.05
2022-09-14T12:44:56.260Z,12.48
2022-09-14T12:47:52.589Z,12.82
2022-09-14T12:50:22.843Z,13.32
2022-09-14T12:53:14.872Z,13.07
2022-09-14T12:55:53.473Z,13.20
2022-09-14T12:58:44.935Z,13.20
2022-09-14T13:01:23.041Z,12.73
2022-09-14T13:03:54.687Z,11.45
2022-09-14T13:06:24.424Z,12.57
2022-09-14T13:08:57.807Z,12.13
2022-09-14T13:11:31.903Z,11.95
2022-09-14T13:14:01.299Z,12.68
2022-09-14T13:16:38.770Z,11.93
2022-09-14T13:19:23.075Z,10.45
2022-09-14T13:21:53.132Z,10.90
2022-09-14T13:24:31.211Z,10.88
2022-09-14T13:27:01.961Z,11.38
2022-09-14T13:29:31.105Z,11.60
2022-09-14T13:32:03.668Z,11.45
2022-09-14T13:34:36.688Z,11.35
2022-09-14T13:37:06.504Z,11.13
2022-09-14T13:39:37.993Z,10.85
2022-09-14T13:42:07.400Z,10.07
2022-09-14T13:44:36.985Z,9.38
2022-09-14T13:47:06.844Z,10.43
2022-09-14T13:49:37.582Z,10.77
2022-09-14T13:52:20.048Z,11.55
2022-09-14T13:54:48.383Z,9.00
2022-09-14T13:57:18.499Z,9.23
2022-09-14T14:00:20.008Z,8.48
2022-09-14T14:02:50.420Z,8.43
2022-09-14T14:05:25.297Z,8.23
2022-09-14T14:07:53.599Z,7.57
2022-09-14T14:10:27.267Z,7.82
2022-09-14T14:12:55.798Z,5.88
2022-09-14T14:15:39.768Z,5.93
2022-09-14T14:18:47.324Z,6.00
2022-09-14T14:21:26.920Z,5.97
2022-09-14T14:24:15.804Z,5.80
2022-09-14T14:26:49.895Z,6.47
2022-09-14T14:29:18.302Z,6.03
2022-09-14T14:31:46.790Z,6.25
2022-09-14T14:34:23.414Z,5.35
2022-09-14T14:36:53.273Z,5.03
2022-09-14T14:39:23.454Z,4.75
2022-09-14T14:41:52.527Z,5.03
2022-09-14T14:44:23.467Z,4.57
2022-09-14T14:46:51.611Z,4.63
2022-09-14T14:49:20.387Z,5.15
2022-09-14T14:51:49.008Z,5.45
2022-09-14T14:54:19.185Z,5.82
2022-09-14T14:56:48.153Z,5.60
2022-09-14T14:59:23.274Z,5.63
2022-09-14T15:01:52.689Z,6.05
2022-09-14T15:04:21.525Z,5.63
2022-09-14T15:06:50.180Z,6.25
2022-09-14T15:09:21.677Z,5.70
2022-09-14T15:11:50.593Z,5.00
2022-09-14T15:14:23.852Z,5.00
2022-09-14T15:16:58.149Z,4.85
2022-09-14T15:19:26.636Z,5.10
2022-09-14T15:22:00.066Z,5.22
2022-09-14T15:24:31.230Z,5.32
2022-09-14T15:26:59.905Z,4.82
2022-09-14T15:29:28.114Z,5.20
2022-09-14T15:31:56.407Z,5.20
2022-09-14T15:34:24.691Z,6.35
2022-09-14T15:36:54.411Z,5.90
2022-09-14T15:39:25.148Z,5.88
2022-09-14T15:41:55.321Z,6.35
2022-09-14T15:44:24.016Z,5.78
2022-09-14T15:46:52.737Z,6.47
2022-09-14T15:49:22.469Z,7.45
2022-09-14T15:51:52.437Z,7.55
2022-09-14T15:54:22.948Z,7.78
2022-09-14T15:56:52.239Z,6.38
2022-09-14T15:59:22.738Z,5.93
2022-09-14T16:01:51.131Z,6.07
2022-09-14T16:04:19.910Z,6.90
2022-09-14T16:06:48.562Z,6.90
2022-09-14T16:09:18.277Z,7.45
2022-09-14T16:11:46.459Z,7.30
2022-09-14T16:14:14.593Z,8.65
2022-09-14T16:16:44.126Z,8.02
2022-09-14T16:19:14.618Z,7.53
2022-09-14T16:21:43.605Z,7.10
2022-09-14T16:24:14.021Z,7.40
2022-09-14T16:26:42.850Z,7.53
2022-09-14T16:29:12.980Z,7.57
2022-09-14T16:31:43.959Z,6.95
2022-09-14T16:34:15.430Z,7.30
2022-09-14T16:36:44.518Z,7.85
2022-09-14T16:39:14.781Z,8.90
2022-09-14T16:41:43.372Z,8.93
2022-09-14T16:44:14.247Z,9.57
2022-09-14T16:46:44.266Z,9.70
2022-09-14T16:49:12.391Z,9.75
2022-09-14T16:51:40.461Z,10.35
2022-09-14T16:54:09.343Z,9.20
2022-09-14T16:56:38.920Z,8.65
2022-09-14T16:59:08.458Z,8.73
2022-09-14T17:01:38.363Z,8.23
2022-09-14T17:04:10.219Z,8.95
2022-09-14T17:06:41.020Z,9.38
2022-09-14T17:09:12.210Z,9.02
2022-09-14T17:11:41.536Z,8.68
2022-09-14T17:14:10.836Z,8.52
2022-09-14T17:16:38.936Z,8.35
2022-09-14T17:19:08.453Z,9.05
2022-09-14T17:21:39.917Z,9.07
2022-09-14T17:24:08.822Z,8.05
2022-09-14T17:26:37.206Z,8.80
2022-09-14T17:29:06.662Z,8.57
2022-09-14T17:31:37.997Z,8.27
2022-09-14T17:34:10.661Z,8.15
2022-09-14T17:36:39.138Z,8.05
2022-09-14T17:39:11.929Z,7.90
2022-09-14T17:41:41.326Z,7.60
2022-09-14T17:44:12.383Z,7.22
2022-09-14T17:46:49.594Z,6.88
2022-09-14T17:49:21.832Z,7.05
2022-09-14T17:51:50.316Z,7.10
2022-09-14T17:54:19.174Z,7.05
2022-09-14T17:56:47.566Z,7.00
2022-09-14T17:59:17.783Z,7.10
2022-09-14T18:01:45.898Z,7.68
2022-09-14T18:04:16.249Z,7.45
2022-09-14T18:06:47.871Z,7.32
2022-09-14T18:09:17.770Z,7.10
2022-09-14T18:11:46.058Z,7.25
2022-09-14T18:14:15.745Z,7.80
2022-09-14T18:16:45.228Z,7.43
2022-09-14T18:19:13.997Z,8.27
2022-09-14T18:21:42.843Z,8.25
2022-09-14T18:24:15.092Z,8.45
2022-09-14T18:26:43.594Z,9.57
2022-09-14T18:29:15.371Z,11.07
2022-09-14T18:31:44.104Z,9.73
2022-09-14T18:34:12.266Z,10.45
2022-09-14T18:36:40.363Z,9.77
2022-09-14T18:39:08.385Z,10.27
2022-09-14T18:41:37.827Z,8.02
2022-09-14T18:44:06.190Z,7.13
2022-09-14T18:46:34.547Z,6.70
2022-09-14T18:49:03.434Z,6.03
2022-09-14T18:51:33.128Z,5.97
2022-09-14T18:54:03.248Z,5.85
2022-09-14T18:56:33.149Z,5.07
2022-09-14T18:59:04.043Z,6.15
2022-09-14T19:01:34.265Z,6.25
2022-09-14T19:04:03.794Z,5.68
2022-09-14T19:06:32.255Z,5.53
2022-09-14T19:09:00.290Z,5.13
2022-09-14T19:11:31.802Z,5.03
2022-09-14T19:14:04.972Z,5.03
2022-09-14T19:16:33.121Z,5.15
2022-09-14T19:19:01.155Z,5.20
2022-09-14T19:21:31.164Z,5.15
2022-09-14T19:24:00.649Z,4.78
2022-09-14T19:26:30.954Z,5.45
2022-09-14T19:29:01.384Z,5.13
2022-09-14T19:31:33.540Z,5.30
2022-09-14T19:34:03.052Z,5.65
2022-09-14T19:36:31.688Z,5.65
2022-09-14T19:39:01.930Z,5.50
2022-09-14T19:41:31.404Z,6.10
2022-09-14T19:43:59.938Z,5.40
2022-09-14T19:46:31.332Z,6.18
2022-09-14T19:48:59.841Z,6.25
2022-09-14T19:51:30.210Z,7.22
2022-09-14T19:54:00.497Z,7.53
2022-09-14T19:56:31.169Z,7.30
2022-09-14T19:59:01.007Z,7.53
2022-09-14T20:01:32.771Z,7.13
2022-09-14T20:04:01.000Z,6.88
2022-09-14T20:06:31.749Z,6.97
2022-09-14T20:09:01.589Z,7.43
2022-09-14T20:11:31.184Z,8.02
2022-09-14T20:14:01.398Z,10.18
2022-09-14T20:16:33.901Z,8.98
2022-09-14T20:19:06.155Z,9.73
2022-09-14T20:21:35.982Z,10.00
2022-09-14T20:24:15.660Z,10.98
2022-09-14T20:26:44.865Z,10.57
2022-09-14T20:29:12.921Z,12.07
2022-09-14T20:31:42.465Z,11.18
2022-09-14T20:34:10.782Z,10.80
2022-09-14T20:36:39.048Z,11.80
2022-09-14T20:39:07.269Z,12.38
2022-09-14T20:41:36.615Z,13.85
2022-09-14T20:44:05.487Z,12.63
2022-09-14T20:46:36.039Z,13.55
2022-09-14T20:49:07.669Z,12.95
2022-09-14T20:51:36.608Z,14.13
2022-09-14T20:54:05.170Z,13.65
2022-09-14T20:56:35.102Z,12.43
2022-09-14T20:59:05.597Z,13.48
2022-09-14T21:01:36.967Z,14.35
2022-09-14T21:04:09.192Z,14.40
2022-09-14T21:06:38.876Z,14.50
2022-09-14T21:09:07.932Z,13.98
2022-09-14T21:11:36.497Z,15.43
2022-09-14T21:14:04.810Z,16.13
2022-09-14T21:16:34.723Z,17.17
2022-09-14T21:19:05.244Z,13.82
2022-09-14T21:21:35.024Z,14.43
2022-09-14T21:24:05.585Z,15.50
2022-09-14T21:26:34.569Z,16.38
2022-09-14T21:29:05.395Z,15.18
2022-09-14T21:31:34.583Z,15.85
2022-09-14T21:34:04.185Z,15.18
2022-09-14T21:36:35.677Z,14.70
2022-09-14T21:39:06.439Z,15.15
2022-09-14T21:41:34.624Z,15.60
2022-09-14T21:44:03.170Z,15.10
2022-09-14T21:46:31.429Z,15.32
2022-09-14T21:48:59.591Z,15.32
2022-09-14T21:51:31.108Z,13.93
2022-09-14T21:54:02.900Z,13.52
2022-09-14T21:56:34.451Z,14.25
2022-09-14T21:59:04.587Z,15.18
2022-09-14T22:01:32.819Z,15.65
2022-09-14T22:04:02.207Z,12.63
2022-09-14T22:06:32.474Z,14.05
2022-09-14T22:09:02.724Z,18.35
2022-09-14T22:11:32.884Z,14.13
2022-09-14T22:14:03.538Z,14.05
2022-09-14T22:16:34.395Z,17.70
2022-09-14T22:19:05.447Z,16.17
2022-09-14T22:21:37.641Z,15.85
2022-09-14T22:24:09.869Z,11.63
2022-09-14T22:26:39.614Z,14.35
2022-09-14T22:29:09.598Z,13.02
2022-09-14T22:31:39.847Z,15.55
2022-09-14T22:34:08.445Z,12.43
2022-09-14T22:36:36.863Z,13.35
2022-09-14T22:39:07.021Z,17.02
2022-09-14T22:41:35.871Z,17.88
2022-09-14T22:44:05.172Z,13.85
2022-09-14T22:46:33.317Z,13.90
2022-09-14T22:49:01.450Z,14.65
2022-09-14T22:51:30.560Z,13.93
2022-09-14T22:53:59.049Z,26.88
2022-09-14T22:56:31.213Z,29.85
2022-09-14T22:59:00.402Z,9.45
2022-09-14T23:01:30.777Z,8.07
2022-09-14T23:04:00.938Z,21.83
2022-09-14T23:06:30.381Z,22.50
2022-09-14T23:09:00.400Z,14.88
2022-09-14T23:11:30.181Z,22.80
2022-09-14T23:13:58.856Z,23.23
2022-09-14T23:16:28.836Z,29.20
2022-09-14T23:18:59.321Z,22.17
2022-09-14T23:21:28.549Z,13.73
2022-09-14T23:23:58.567Z,16.25
2022-09-14T23:26:27.022Z,13.70
2022-09-14T23:28:58.487Z,17.45
2022-09-14T23:31:28.903Z,12.27
2022-09-14T23:33:59.040Z,11.88
2022-09-14T23:36:28.357Z,15.88
2022-09-14T23:38:56.654Z,14.93
2022-09-14T23:41:26.285Z,14.50
2022-09-14T23:43:56.127Z,15.30
2022-09-14T23:46:24.812Z,14.38
2022-09-14T23:48:53.230Z,28.38
2022-09-14T23:51:21.565Z,30.05
2022-09-14T23:53:49.599Z,19.23
2022-09-14T23:56:17.950Z,28.15
2022-09-14T23:58:46.236Z,17.67
